x

Cape Elizabeth- 45nm Nw Of Aberdeen, Wa (46041) Wave Buoy

3:50 - Tue 3rd May 2016 All times are PDT. -7 hours from GMT.

  • Sig Wave height 5.9ft
  • Swell Direction
  • Peak Period 12s
  • Average Period 7s
  • Wind
    16mph, 18mph gusts
  • Sea Temp 55°f
  • Aire Temp 54°f
  • Sea Pressure 1019.9mb
  • Cape Elizabeth- 45nm Nw Of Aberdeen, Wa
  • Cape Elizabeth- 45nm Nw Of Aberdeen, Wa

More Historic Weather Station data

Upgrade to MSW Pro to gain access to the past 30 days of data for over 8000 Wavebouys and Weather Stations around the globe.

Join Pro

Comparision Forecast

View Surf forecast
   
mar 05/03 3:50 6ft 12s 7s 16 18 mph 1019.9mb 55f 54f
2:50 5.5ft 11s 7s 13 16 mph 1019.9mb 56f 54f
1:50 6ft 12s 7s 11 13 mph 1019.7mb 55f 54f
12:50 6ft 11s 7s 9 11 mph 1019.4mb 55f 54f
11:50 6ft 10s 7s 9 11 mph 1019.1mb 54f 54f
10:50 6ft 11s 7s 9 11 mph 1018.5mb 54f 54f
9:50 6.5ft 11s 8s 7 9 mph 1018.2mb 54f 54f
8:50 6ft 13s 8s 7 9 mph 1017.8mb 54f 54f
7:50 6ft 11s 8s 7 9 mph 1017.2mb 54f 54f
5:50 6.5ft 12s 9s 4 7 mph 1016.8mb 54f 54f
4:50 6.5ft 11s 8s 9
mph
1016.8mb 54f 54f
3:50 7ft 12s 9s 9
mph
1017mb 54f 54f
2:50 7.5ft 13s 9s 9 11 mph 1017.1mb 55f 54f
1:50 6ft 13s 9s 13 16 mph 1016.5mb 55f 54f
12:50 6ft 13s 9s 9 11 mph 1016.8mb 55f 55f
lun 05/02 11:50 6ft 14s 9s 11 13 mph 1015.3mb 55f 55f
10:50 6ft 13s 9s 11 13 mph 1014.9mb 55f 55f
9:50 7ft 13s 9s 4 7 mph 1014.8mb 55f 55f
8:50 6ft 14s 9s  -  2 mph 1014.7mb 56f 55f
7:50 6ft 14s 9s 2 4 mph 1014.4mb 55f 55f
6:50 6.5ft 14s 9s 4
mph
1014.5mb 55f 56f
5:50 7.5ft 12s 9s 11
mph
1014.1mb 55f 56f
4:50 6ft 14s 9s 11 13 mph 1013.9mb 56f 56f
3:50 7ft 11s 9s 11 13 mph 1013.8mb 55f 57f
2:50 6.5ft 11s 9s 11 13 mph 1013.9mb 55f 57f
1:50 7.5ft 11s 10s 11 13 mph 1013.7mb 55f 57f
12:50 7ft 14s 9s 13 16 mph 1013.6mb 55f 59f
11:50 7.5ft 14s 10s 16 18 mph 1013.3mb 55f 61f
10:50 7.5ft 14s 10s 11 13 mph 1013mb 54f 58f
9:50 7ft 13s 9s 13 16 mph 1012.3mb 54f 60f
8:50 7.5ft 14s 9s 13 16 mph 1012.2mb 54f 59f
7:50 6.5ft 14s 9s 13 18 mph 1012mb 54f 60f
6:50 7ft 13s 10s 9 13 mph 1011.6mb 54f 58f
5:50 6ft 13s 10s 11 13 mph 1011.5mb 54f 58f
4:50 5.5ft 14s 10s 9 11 mph 1011.8mb 54f 56f
3:50 6ft 13s 10s 4 7 mph 1012.2mb 54f 56f
2:50 5.5ft 11s 9s 7 9 mph 1012mb 54f 58f
1:50 5.5ft 12s 9s 7 9 mph 1012.1mb 54f 57f
12:50 6ft 11s 9s 7
mph
1012mb 54f 57f
dom 05/01 11:50 6ft 12s 9s 4 7 mph 1012mb 54f 57f
10:50 5.5ft 12s 9s 9 11 mph 1012.2mb 54f 58f
9:50 5ft 12s 9s 9
mph
1012.4mb 54f 57f
8:50 5ft 12s 9s 9
mph
1012.5mb 55f 56f
7:50 5ft 11s 8s 11 13 mph 1012.4mb 55f 57f
6:50 5ft 12s 9s 9
mph
1013.2mb 55f 57f
5:50 5ft 13s 9s 9 11 mph 1013.9mb 55f 57f
4:50 5ft 11s 8s 9 11 mph 1015.1mb 55f 57f
3:50 5ft 14s 8s 9 11 mph 1015.9mb 56f 56f
2:50 5.5ft 13s 8s 13
mph
1016.6mb 56f 57f
1:50 5ft 14s 8s 9 11 mph 1017.5mb 57f 56f
12:50 5.5ft 14s 8s 4 7 mph 1018.5mb 57f 56f
11:50 5ft 14s 8s 2 4 mph 1019.3mb 56f 55f
10:50 6ft 14s 8s  -  2 mph 1019.9mb 55f 55f
9:50 5.5ft 14s 8s 2 4 mph 1020.6mb 55f 53f
8:50 5ft 14s 7s 4
mph
1021.5mb 54f 53f
7:50 6ft 14s 8s 4 7 mph 1022mb 54f 53f
6:50 6ft 14s 8s 7
mph
1022.3mb 54f 52f
5:50 5.5ft 13s 8s 7 9 mph 1022.6mb 54f 52f
4:50 5.5ft 13s 7s 9
mph
1023mb 54f 52f
3:50 6ft 13s 7s 11 13 mph 1023.4mb 55f 52f
2:50 6ft 12s 7s 13 16 mph 1024.2mb 55f 53f
1:50 6ft 13s 6s 16 20 mph 1024.7mb 55f 53f
12:50 5.5ft 14s 6s 18 20 mph 1025.4mb 55f 53f
sáb 04/30 11:50 6ft 10s 6s 16 20 mph 1026mb 55f 53f
10:50 6ft 10s 6s 20 22 mph 1026.3mb 55f 53f
9:50 6ft 11s 6s 20 25 mph 1026.6mb 55f 53f
8:50 6ft 10s 6s 20 22 mph 1026.6mb 55f 53f
7:50 6ft 10s 6s 20 22 mph 1026.8mb 55f 53f
6:50 5.5ft 10s 6s 20 22 mph 1027.1mb 55f 53f
5:50 6ft 10s 6s 18 20 mph 1027.6mb 55f 53f
4:50 6ft 10s 7s 18 20 mph 1027.8mb 55f 53f
3:50 6ft 10s 7s 13 16 mph 1028.3mb 55f 53f
2:50 6ft 10s 7s 13 16 mph 1028.7mb 55f 52f
1:50 6.5ft 11s 7s 13 18 mph 1029.1mb 55f 52f
12:50 6ft 11s 7s 11 16 mph 1029.4mb 55f 52f
11:50 6.5ft 11s 7s 11
mph
1029.3mb 55f 52f
10:50 6.5ft 11s 7s 9 13 mph 1029.1mb 55f 52f
9:50 7ft 11s 7s 9 13 mph 1029mb 55f 52f
8:50 8ft 10s 7s 7 9 mph 1028.5mb 55f 52f
7:50 8ft 11s 7s 11 13 mph 1028.1mb 55f 52f
5:50 9ft 8s 7s 11 16 mph 1026.9mb 55f 52f
4:50 8ft 8s 7s 13 18 mph 1026.6mb 55f 52f
3:50 9ft 8s 7s 13 18 mph 1026.5mb 55f 52f
2:50 9ft 8s 7s 16 22 mph 1026.2mb 55f 52f
1:50 8.5ft 8s 7s 18 22 mph 1025.8mb 55f 52f
12:50 9.5ft 8s 7s 18 22 mph 1025.6mb 55f 52f